createdAt,value
2023-03-30T00:00:02.506Z,13.39
2023-03-30T00:01:03.260Z,13.37
2023-03-30T00:02:02.531Z,13.37
2023-03-30T00:03:03.179Z,13.38
2023-03-30T00:04:03.791Z,13.41
2023-03-30T00:05:02.702Z,13.43
2023-03-30T00:06:02.951Z,13.41
2023-03-30T00:07:02.911Z,13.33
2023-03-30T00:08:02.696Z,13.25
2023-03-30T00:09:02.895Z,13.10
2023-03-30T00:10:02.765Z,12.97
2023-03-30T00:11:03.737Z,12.88
2023-03-30T00:12:02.835Z,12.79
2023-03-30T00:13:02.140Z,12.71
2023-03-30T00:14:02.819Z,12.64
2023-03-30T00:15:02.819Z,12.56
2023-03-30T00:16:02.540Z,12.52
2023-03-30T00:17:02.798Z,12.49
2023-03-30T00:18:02.783Z,12.49
2023-03-30T00:19:02.145Z,12.54
2023-03-30T00:20:03.512Z,12.62
2023-03-30T00:21:02.306Z,12.76
2023-03-30T00:22:02.694Z,12.88
2023-03-30T00:23:02.708Z,13.01
2023-03-30T00:24:03.428Z,13.20
2023-03-30T00:25:02.717Z,13.30
2023-03-30T00:26:03.377Z,13.36
2023-03-30T00:27:02.629Z,13.42
2023-03-30T00:28:03.346Z,13.47
2023-03-30T00:29:03.288Z,13.51
2023-03-30T00:30:03.328Z,13.56
2023-03-30T00:31:02.968Z,13.61
2023-03-30T00:32:02.628Z,13.66
2023-03-30T00:33:02.606Z,13.94
2023-03-30T00:34:03.272Z,14.16
2023-03-30T00:35:02.536Z,14.38
2023-03-30T00:36:02.553Z,14.51
2023-03-30T00:37:02.478Z,14.58
2023-03-30T00:38:03.168Z,14.68
2023-03-30T00:39:03.163Z,14.78
2023-03-30T00:40:02.461Z,14.92
2023-03-30T00:41:02.670Z,15.06
2023-03-30T00:42:02.404Z,15.12
2023-03-30T00:43:02.415Z,15.15
2023-03-30T00:44:02.414Z,15.14
2023-03-30T00:45:02.638Z,15.16
2023-03-30T00:46:02.451Z,15.25
2023-03-30T00:47:02.349Z,15.39
2023-03-30T00:48:02.377Z,15.48
2023-03-30T00:49:02.343Z,15.52
2023-03-30T00:50:02.318Z,15.56
2023-03-30T00:51:03.378Z,15.57
2023-03-30T00:52:02.294Z,15.58
2023-03-30T00:53:02.253Z,15.61
2023-03-30T00:54:02.270Z,15.62
2023-03-30T00:55:02.313Z,15.68
2023-03-30T00:56:02.237Z,15.73
2023-03-30T00:57:02.254Z,15.73
2023-03-30T00:58:02.195Z,15.69
2023-03-30T00:59:02.190Z,15.63
2023-03-30T01:00:02.190Z,15.58
2023-03-30T01:01:02.478Z,15.59
2023-03-30T01:02:02.864Z,15.59
2023-03-30T01:03:02.254Z,15.59
2023-03-30T01:04:02.804Z,15.61
2023-03-30T01:05:02.112Z,15.58
2023-03-30T01:06:02.105Z,15.55
2023-03-30T01:07:02.136Z,15.49
2023-03-30T01:08:03.544Z,15.46
2023-03-30T01:09:02.746Z,15.49
2023-03-30T01:10:02.042Z,15.58
2023-03-30T01:11:02.319Z,15.61
2023-03-30T01:12:02.018Z,15.62
2023-03-30T01:13:01.987Z,15.62
2023-03-30T01:14:01.554Z,15.60
2023-03-30T01:15:01.968Z,15.58
2023-03-30T01:16:01.983Z,15.57
2023-03-30T01:17:01.956Z,15.54
2023-03-30T01:18:01.934Z,15.48
2023-03-30T01:19:01.923Z,15.46
2023-03-30T01:20:01.297Z,15.44
2023-03-30T01:21:02.005Z,15.39
2023-03-30T01:22:01.322Z,15.33
2023-03-30T01:23:01.148Z,15.26
2023-03-30T01:24:01.285Z,15.20
2023-03-30T01:25:02.512Z,15.10
2023-03-30T01:26:01.869Z,15.01
2023-03-30T01:27:01.853Z,15.01
2023-03-30T01:28:01.099Z,14.98
2023-03-30T01:29:01.761Z,14.92
2023-03-30T01:30:01.818Z,14.84
2023-03-30T01:31:01.970Z,14.73
2023-03-30T01:32:01.782Z,14.66
2023-03-30T01:33:01.775Z,14.59
2023-03-30T01:34:01.706Z,14.49
2023-03-30T01:35:01.734Z,14.40
2023-03-30T01:36:01.730Z,14.33
2023-03-30T01:37:01.910Z,14.29
2023-03-30T01:38:02.327Z,14.27
2023-03-30T01:39:01.618Z,14.25
2023-03-30T01:40:01.645Z,14.23
2023-03-30T01:41:01.847Z,14.21
2023-03-30T01:42:01.608Z,14.18
2023-03-30T01:43:01.614Z,14.14
2023-03-30T01:44:01.566Z,14.18
2023-03-30T01:45:01.605Z,14.29
2023-03-30T01:46:01.563Z,14.37
2023-03-30T01:47:01.661Z,14.47
2023-03-30T01:48:01.580Z,14.53
2023-03-30T01:49:01.487Z,14.51
2023-03-30T01:50:01.558Z,14.41
2023-03-30T01:51:01.635Z,14.30
2023-03-30T01:52:01.471Z,14.17
2023-03-30T01:53:01.447Z,14.06
2023-03-30T01:54:02.167Z,14.03
2023-03-30T01:55:01.442Z,14.01
2023-03-30T01:56:01.397Z,13.99
2023-03-30T01:57:01.423Z,13.95
2023-03-30T01:58:01.396Z,13.93
2023-03-30T01:59:01.383Z,13.85
2023-03-30T02:00:01.359Z,13.77
2023-03-30T02:01:01.518Z,13.69
2023-03-30T02:02:01.348Z,13.62
2023-03-30T02:03:01.381Z,13.58
2023-03-30T02:04:01.322Z,13.53
2023-03-30T02:05:01.321Z,13.56
2023-03-30T02:06:01.954Z,13.59
2023-03-30T02:07:01.263Z,13.55
2023-03-30T02:08:01.247Z,13.66
2023-03-30T02:09:01.195Z,13.69
2023-03-30T02:10:01.223Z,13.66
2023-03-30T02:11:01.283Z,13.61
2023-03-30T02:12:01.179Z,13.56
2023-03-30T02:13:01.183Z,13.50
2023-03-30T02:14:01.131Z,13.46
2023-03-30T02:15:01.139Z,13.42
2023-03-30T02:16:01.182Z,13.41
2023-03-30T02:17:01.845Z,13.50
2023-03-30T02:18:01.819Z,13.55
2023-03-30T02:19:01.062Z,13.53
2023-03-30T02:20:00.500Z,13.49
2023-03-30T02:21:01.119Z,13.44
2023-03-30T02:22:01.037Z,13.46
2023-03-30T02:23:01.027Z,13.47
2023-03-30T02:24:01.004Z,13.45
2023-03-30T02:25:01.002Z,13.44
2023-03-30T02:26:00.759Z,13.40
2023-03-30T02:27:00.969Z,13.35
2023-03-30T02:28:00.830Z,13.32
2023-03-30T02:29:00.991Z,13.31
2023-03-30T02:30:00.936Z,13.28
2023-03-30T02:31:01.081Z,13.25
2023-03-30T02:32:00.996Z,13.21
2023-03-30T02:33:00.931Z,13.19
2023-03-30T02:34:00.864Z,13.17
2023-03-30T02:35:00.840Z,13.14
2023-03-30T02:36:00.880Z,13.10
2023-03-30T02:37:00.849Z,13.04
2023-03-30T02:38:01.551Z,12.98
2023-03-30T02:39:00.819Z,13.00
2023-03-30T02:40:01.438Z,13.16
2023-03-30T02:41:00.911Z,13.26
2023-03-30T02:42:01.492Z,13.30
2023-03-30T02:43:00.757Z,13.30
2023-03-30T02:44:01.503Z,13.26
2023-03-30T02:45:00.700Z,13.23
2023-03-30T02:46:01.492Z,13.22
2023-03-30T02:47:00.705Z,13.24
2023-03-30T02:48:01.466Z,13.33
2023-03-30T02:49:00.683Z,13.49
2023-03-30T02:50:01.406Z,13.57
2023-03-30T02:51:01.432Z,13.59
2023-03-30T02:52:01.311Z,13.58
2023-03-30T02:53:00.619Z,13.54
2023-03-30T02:54:00.609Z,13.54
2023-03-30T02:55:00.569Z,13.54
2023-03-30T02:56:01.273Z,13.51
2023-03-30T02:57:00.607Z,13.48
2023-03-30T02:58:00.553Z,13.44
2023-03-30T02:59:00.536Z,13.40
2023-03-30T03:00:00.515Z,13.35
2023-03-30T03:01:00.559Z,13.28
2023-03-30T03:02:00.784Z,13.21
2023-03-30T03:03:00.542Z,13.13
2023-03-30T03:04:01.192Z,13.04
2023-03-30T03:05:00.431Z,12.95
2023-03-30T03:06:00.457Z,12.85
2023-03-30T03:07:00.461Z,12.78
2023-03-30T03:08:00.414Z,12.71
2023-03-30T03:09:00.408Z,12.66
2023-03-30T03:10:01.106Z,12.60
2023-03-30T03:11:00.356Z,12.53
2023-03-30T03:12:00.358Z,12.46
2023-03-30T03:13:00.342Z,12.38
2023-03-30T03:14:00.317Z,12.31
2023-03-30T03:15:00.299Z,12.25
2023-03-30T03:16:02.831Z,12.19
2023-03-30T03:17:01.012Z,12.13
2023-03-30T03:18:01.001Z,12.07
2023-03-30T03:19:00.934Z,12.01
2023-03-30T03:20:00.226Z,11.96
2023-03-30T03:21:00.194Z,11.93
2023-03-30T03:22:00.231Z,11.91
2023-03-30T03:23:00.198Z,11.87
2023-03-30T03:24:00.179Z,11.84
2023-03-30T03:25:00.191Z,11.81
2023-03-30T03:26:00.132Z,11.78
2023-03-30T03:27:00.867Z,11.76
2023-03-30T03:27:59.911Z,11.73
2023-03-30T03:29:00.139Z,11.71
2023-03-30T03:30:00.794Z,11.68
2023-03-30T03:31:00.162Z,11.66
2023-03-30T03:31:59.904Z,11.63
2023-03-30T03:33:00.117Z,11.60
2023-03-30T03:34:00.048Z,11.57
2023-03-30T03:34:59.906Z,11.55
2023-03-30T03:36:00.061Z,11.54
2023-03-30T03:36:59.789Z,11.52
2023-03-30T03:37:59.916Z,11.48
2023-03-30T03:39:00.641Z,11.46
2023-03-30T03:39:59.263Z,11.45
2023-03-30T03:41:00.649Z,11.44
2023-03-30T03:41:59.930Z,11.43
2023-03-30T03:43:00.597Z,11.42
2023-03-30T03:43:59.910Z,11.40
2023-03-30T03:45:00.603Z,11.39
2023-03-30T03:45:59.994Z,11.39
2023-03-30T03:46:59.865Z,11.38
2023-03-30T03:47:59.901Z,11.37
2023-03-30T03:48:59.851Z,11.36
2023-03-30T03:49:59.819Z,11.35
2023-03-30T03:50:59.792Z,11.35
2023-03-30T03:51:59.795Z,11.34
2023-03-30T03:53:00.465Z,11.33
2023-03-30T03:53:59.764Z,11.32
2023-03-30T03:54:59.755Z,11.32
2023-03-30T03:55:59.719Z,11.31
2023-03-30T03:56:59.740Z,11.30
2023-03-30T03:57:59.953Z,11.29
2023-03-30T03:58:59.739Z,11.28
2023-03-30T03:59:59.808Z,11.28
2023-03-30T04:01:00.010Z,11.27
2023-03-30T04:01:59.699Z,11.26
2023-03-30T04:02:59.681Z,11.25
2023-03-30T04:03:59.629Z,11.25
2023-03-30T04:04:59.709Z,11.25
2023-03-30T04:05:59.588Z,11.25
2023-03-30T04:06:59.810Z,11.25
2023-03-30T04:07:59.574Z,11.25
2023-03-30T04:08:59.566Z,11.25
2023-03-30T04:09:59.580Z,11.25
2023-03-30T04:10:59.506Z,11.25
2023-03-30T04:11:59.519Z,11.25
2023-03-30T04:12:59.495Z,11.25
2023-03-30T04:13:59.492Z,11.25
2023-03-30T04:14:59.491Z,11.24
2023-03-30T04:15:59.482Z,11.24
2023-03-30T04:16:59.459Z,11.23
2023-03-30T04:17:59.541Z,11.22
2023-03-30T04:18:59.417Z,11.22
2023-03-30T04:19:59.396Z,11.21
2023-03-30T04:20:59.378Z,11.22
2023-03-30T04:21:59.390Z,11.22
2023-03-30T04:22:59.357Z,11.22
2023-03-30T04:23:59.355Z,11.22
2023-03-30T04:25:00.007Z,11.23
2023-03-30T04:25:59.309Z,11.26
2023-03-30T04:26:59.316Z,11.30
2023-03-30T04:27:59.283Z,11.33
2023-03-30T04:28:59.319Z,11.33
2023-03-30T04:29:59.273Z,11.31
2023-03-30T04:30:59.256Z,11.30
2023-03-30T04:31:59.295Z,11.30
2023-03-30T04:32:59.938Z,11.29
2023-03-30T04:33:59.230Z,11.28
2023-03-30T04:34:59.195Z,11.28
2023-03-30T04:35:59.206Z,11.27
2023-03-30T04:36:59.181Z,11.27
2023-03-30T04:37:59.151Z,11.26
2023-03-30T04:38:59.158Z,11.24
2023-03-30T04:39:59.139Z,11.23
2023-03-30T04:40:59.094Z,11.23
2023-03-30T04:41:58.876Z,11.24
2023-03-30T04:42:59.090Z,11.24
2023-03-30T04:43:59.073Z,11.24
2023-03-30T04:44:59.117Z,11.23
2023-03-30T04:45:59.108Z,11.22
2023-03-30T04:46:59.028Z,11.22
2023-03-30T04:47:59.714Z,11.23
2023-03-30T04:48:59.015Z,11.23
2023-03-30T04:49:59.024Z,11.24
2023-03-30T04:50:59.966Z,11.23
2023-03-30T04:51:59.686Z,11.23
2023-03-30T04:52:59.655Z,11.22
2023-03-30T04:53:59.644Z,11.22
2023-03-30T04:54:59.638Z,11.22
2023-03-30T04:55:59.647Z,11.23
2023-03-30T04:56:59.676Z,11.26
2023-03-30T04:57:59.599Z,11.30
2023-03-30T04:58:58.875Z,11.33
2023-03-30T04:59:59.573Z,11.36
2023-03-30T05:00:59.594Z,11.55
2023-03-30T05:01:59.581Z,11.64
2023-03-30T05:02:59.659Z,11.70
2023-03-30T05:03:59.518Z,11.77
2023-03-30T05:04:59.001Z,11.84
2023-03-30T05:05:59.485Z,11.87
2023-03-30T05:06:58.729Z,11.89
2023-03-30T05:07:59.417Z,11.93
2023-03-30T05:08:58.739Z,11.96
2023-03-30T05:09:58.716Z,12.00
2023-03-30T05:10:59.408Z,12.03
2023-03-30T05:11:58.672Z,12.07
2023-03-30T05:12:58.663Z,12.11
2023-03-30T05:13:58.650Z,12.17
2023-03-30T05:14:58.668Z,12.20
2023-03-30T05:15:58.630Z,12.20
2023-03-30T05:16:59.378Z,12.19
2023-03-30T05:17:58.638Z,12.22
2023-03-30T05:18:58.653Z,12.23
2023-03-30T05:19:59.253Z,12.22
2023-03-30T05:20:58.616Z,12.21
2023-03-30T05:21:58.518Z,12.20
2023-03-30T05:22:58.565Z,12.17
2023-03-30T05:23:58.538Z,12.15
2023-03-30T05:24:58.501Z,12.13
2023-03-30T05:25:58.514Z,12.13
2023-03-30T05:26:58.452Z,12.16
2023-03-30T05:27:58.455Z,12.17
2023-03-30T05:28:58.448Z,12.19
2023-03-30T05:29:58.458Z,12.23
2023-03-30T05:30:58.440Z,12.24
2023-03-30T05:31:58.381Z,12.21
2023-03-30T05:32:58.460Z,12.18
2023-03-30T05:33:58.372Z,12.15
2023-03-30T05:34:58.362Z,12.12
2023-03-30T05:35:58.462Z,12.12
2023-03-30T05:36:58.303Z,12.10
2023-03-30T05:37:59.009Z,12.07
2023-03-30T05:38:59.032Z,12.05
2023-03-30T05:39:58.045Z,12.03
2023-03-30T05:40:58.050Z,12.01
2023-03-30T05:41:58.964Z,12.00
2023-03-30T05:42:58.011Z,11.99
2023-03-30T05:43:58.015Z,11.97
2023-03-30T05:44:58.000Z,11.97
2023-03-30T05:45:58.231Z,11.95
2023-03-30T05:46:58.178Z,11.94
2023-03-30T05:47:58.277Z,11.93
2023-03-30T05:48:58.168Z,11.92
2023-03-30T05:49:58.169Z,11.93
2023-03-30T05:50:58.974Z,11.93
2023-03-30T05:51:58.089Z,11.94
2023-03-30T05:52:58.026Z,11.98
2023-03-30T05:53:58.015Z,12.04
2023-03-30T05:54:58.016Z,12.09
2023-03-30T05:55:58.790Z,12.09
2023-03-30T05:56:58.090Z,12.07
2023-03-30T05:57:58.042Z,12.06
2023-03-30T05:58:57.327Z,12.06
2023-03-30T05:59:58.000Z,12.06
2023-03-30T06:00:57.993Z,12.06
2023-03-30T06:01:57.266Z,12.03
2023-03-30T06:02:57.347Z,12.00
2023-03-30T06:03:58.162Z,11.98
2023-03-30T06:04:58.038Z,11.95
2023-03-30T06:05:58.601Z,11.93
2023-03-30T06:06:58.138Z,11.91
2023-03-30T06:07:57.880Z,11.90
2023-03-30T06:08:57.883Z,11.89
2023-03-30T06:09:57.860Z,11.88
2023-03-30T06:10:57.878Z,11.88
2023-03-30T06:11:57.838Z,11.88
2023-03-30T06:12:57.800Z,11.88
2023-03-30T06:13:57.828Z,11.88
2023-03-30T06:14:57.802Z,11.87
2023-03-30T06:15:58.092Z,11.87
2023-03-30T06:16:57.889Z,11.88
2023-03-30T06:17:58.478Z,11.89
2023-03-30T06:18:57.739Z,11.89
2023-03-30T06:19:57.737Z,11.90
2023-03-30T06:20:57.716Z,11.90
2023-03-30T06:21:57.015Z,11.90
2023-03-30T06:22:57.656Z,11.89
2023-03-30T06:23:57.678Z,11.89
2023-03-30T06:24:57.033Z,11.88
2023-03-30T06:25:57.662Z,11.88
2023-03-30T06:26:56.927Z,11.88
2023-03-30T06:27:57.670Z,11.88
2023-03-30T06:28:57.607Z,11.91
2023-03-30T06:29:57.572Z,11.93
2023-03-30T06:30:57.568Z,11.97
2023-03-30T06:31:57.603Z,12.00
2023-03-30T06:32:58.317Z,12.02
2023-03-30T06:33:57.539Z,12.02
2023-03-30T06:34:57.508Z,11.99
2023-03-30T06:35:57.537Z,11.95
2023-03-30T06:36:57.499Z,11.94
2023-03-30T06:37:57.449Z,11.95
2023-03-30T06:38:57.462Z,11.95
2023-03-30T06:39:57.448Z,11.96
2023-03-30T06:40:57.428Z,11.98
2023-03-30T06:41:57.425Z,12.01
2023-03-30T06:42:56.691Z,12.04
2023-03-30T06:43:57.389Z,12.08
2023-03-30T06:44:57.371Z,12.09
2023-03-30T06:45:58.124Z,12.09
2023-03-30T06:46:57.349Z,12.10
2023-03-30T06:47:57.340Z,12.10
2023-03-30T06:48:56.612Z,12.12
2023-03-30T06:49:58.024Z,12.13
2023-03-30T06:50:56.645Z,12.14
2023-03-30T06:51:57.215Z,12.16
2023-03-30T06:52:57.257Z,12.16
2023-03-30T06:53:57.223Z,12.15
2023-03-30T06:54:57.247Z,12.14
2023-03-30T06:55:56.992Z,12.13
2023-03-30T06:56:57.962Z,12.12
2023-03-30T06:57:57.003Z,12.14
2023-03-30T06:58:56.993Z,12.14
2023-03-30T06:59:57.423Z,12.15
2023-03-30T07:00:58.110Z,12.15
2023-03-30T07:01:57.221Z,12.15
2023-03-30T07:02:57.496Z,12.17
2023-03-30T07:03:57.182Z,12.17
2023-03-30T07:04:56.425Z,12.18
2023-03-30T07:05:57.110Z,12.18
2023-03-30T07:06:57.002Z,12.18
2023-03-30T07:07:57.280Z,12.18
2023-03-30T07:08:57.022Z,12.20
2023-03-30T07:09:56.313Z,12.22
2023-03-30T07:10:57.749Z,12.25
2023-03-30T07:11:56.780Z,12.30
2023-03-30T07:12:57.712Z,12.36
2023-03-30T07:13:57.714Z,12.43
2023-03-30T07:14:57.679Z,12.50
2023-03-30T07:15:57.691Z,12.60
2023-03-30T07:16:57.033Z,12.67
2023-03-30T07:17:57.675Z,12.75
2023-03-30T07:18:57.596Z,12.81
2023-03-30T07:19:57.607Z,12.84
2023-03-30T07:20:56.900Z,12.85
2023-03-30T07:21:57.612Z,12.89
2023-03-30T07:22:56.114Z,13.00
2023-03-30T07:23:56.817Z,13.22
2023-03-30T07:24:56.842Z,13.54
2023-03-30T07:25:56.799Z,13.87
2023-03-30T07:26:57.690Z,14.11
2023-03-30T07:27:56.307Z,13.77
2023-03-30T07:28:56.735Z,13.48
2023-03-30T07:30:02.561Z,13.28
2023-03-30T07:30:57.760Z,13.17
2023-03-30T07:31:56.823Z,13.22
2023-03-30T07:32:58.709Z,13.78
2023-03-30T07:33:56.690Z,13.98
2023-03-30T07:34:56.723Z,14.08
2023-03-30T07:35:56.757Z,14.31
2023-03-30T07:36:55.936Z,14.72
2023-03-30T07:38:02.804Z,14.80
2023-03-30T07:38:57.597Z,14.97
2023-03-30T07:39:56.688Z,14.97
2023-03-30T07:40:56.660Z,14.82
2023-03-30T07:41:56.645Z,14.65
2023-03-30T07:42:56.677Z,14.68
2023-03-30T07:43:56.529Z,14.65
2023-03-30T07:44:56.093Z,14.54
2023-03-30T07:45:56.577Z,14.37
2023-03-30T07:46:55.776Z,14.18
2023-03-30T07:47:56.512Z,14.17
2023-03-30T07:48:56.467Z,14.31
2023-03-30T07:49:56.467Z,14.60
2023-03-30T07:50:56.492Z,15.05
2023-03-30T07:51:57.137Z,15.50
2023-03-30T07:52:56.419Z,15.76
2023-03-30T07:53:56.393Z,15.52
2023-03-30T07:54:56.114Z,15.00
2023-03-30T07:55:56.129Z,14.52
2023-03-30T07:56:57.083Z,14.14
2023-03-30T07:57:56.122Z,13.92
2023-03-30T07:58:56.521Z,13.81
2023-03-30T07:59:56.115Z,13.67
2023-03-30T08:00:56.037Z,13.54
2023-03-30T08:01:56.114Z,13.41
2023-03-30T08:02:56.202Z,13.32
2023-03-30T08:03:56.381Z,13.23
2023-03-30T08:04:57.284Z,13.17
2023-03-30T08:05:56.120Z,13.12
2023-03-30T08:06:56.282Z,13.07
2023-03-30T08:07:56.215Z,13.03
2023-03-30T08:08:56.117Z,13.01
2023-03-30T08:09:56.167Z,13.02
2023-03-30T08:10:55.464Z,13.04
2023-03-30T08:11:56.156Z,13.12
2023-03-30T08:12:56.154Z,13.17
2023-03-30T08:13:56.125Z,13.21
2023-03-30T08:14:55.396Z,13.21
2023-03-30T08:15:56.145Z,13.16
2023-03-30T08:16:55.418Z,13.11
2023-03-30T08:17:56.104Z,13.10
2023-03-30T08:18:56.076Z,13.19
2023-03-30T08:19:56.844Z,13.22
2023-03-30T08:20:56.074Z,13.23
2023-03-30T08:21:55.431Z,13.19
2023-03-30T08:22:56.240Z,13.15
2023-03-30T08:23:56.660Z,13.11
2023-03-30T08:24:55.959Z,13.06
2023-03-30T08:25:55.970Z,13.01
2023-03-30T08:26:56.011Z,12.93
2023-03-30T08:27:55.938Z,12.89
2023-03-30T08:28:55.927Z,12.85
2023-03-30T08:29:55.905Z,12.83
2023-03-30T08:30:55.909Z,12.79
2023-03-30T08:31:56.016Z,12.77
2023-03-30T08:32:55.911Z,12.73
2023-03-30T08:33:56.517Z,12.72
2023-03-30T08:34:55.201Z,12.70
2023-03-30T08:35:55.892Z,12.70
2023-03-30T08:36:56.534Z,12.66
2023-03-30T08:37:55.796Z,12.66
2023-03-30T08:38:55.798Z,12.65
2023-03-30T08:39:56.477Z,12.63
2023-03-30T08:40:55.800Z,12.62
2023-03-30T08:41:55.747Z,12.62
2023-03-30T08:42:56.945Z,12.63
2023-03-30T08:43:55.721Z,12.65
2023-03-30T08:44:55.702Z,12.69
2023-03-30T08:45:55.762Z,12.72
2023-03-30T08:46:55.681Z,12.73
2023-03-30T08:47:55.763Z,12.73
2023-03-30T08:48:55.645Z,12.71
2023-03-30T08:49:55.612Z,12.72
2023-03-30T08:50:55.254Z,12.72
2023-03-30T08:51:55.607Z,12.71
2023-03-30T08:52:55.700Z,12.72
2023-03-30T08:53:55.597Z,12.74
2023-03-30T08:54:57.045Z,12.79
2023-03-30T08:55:55.554Z,12.83
2023-03-30T08:56:55.616Z,12.86
2023-03-30T08:57:55.546Z,12.93
2023-03-30T08:58:55.515Z,12.97
2023-03-30T08:59:55.481Z,13.00
2023-03-30T09:00:55.485Z,13.08
2023-03-30T09:01:55.512Z,13.11
2023-03-30T09:02:55.530Z,13.13
2023-03-30T09:03:54.993Z,13.10
2023-03-30T09:04:55.409Z,13.06
2023-03-30T09:05:55.427Z,13.05
2023-03-30T09:06:56.074Z,13.02
2023-03-30T09:07:56.065Z,12.97
2023-03-30T09:08:55.363Z,12.93
2023-03-30T09:09:55.126Z,12.91
2023-03-30T09:10:55.347Z,12.90
2023-03-30T09:11:56.005Z,12.92
2023-03-30T09:12:54.901Z,12.92
2023-03-30T09:13:55.340Z,12.90
2023-03-30T09:14:55.179Z,12.93
2023-03-30T09:15:55.191Z,12.96
2023-03-30T09:16:55.326Z,12.98
2023-03-30T09:17:55.248Z,13.04
2023-03-30T09:18:55.279Z,13.11
2023-03-30T09:19:55.198Z,13.12
2023-03-30T09:20:54.557Z,13.18
2023-03-30T09:21:57.103Z,13.20
2023-03-30T09:22:55.185Z,13.26
2023-03-30T09:23:55.889Z,13.46
2023-03-30T09:24:55.887Z,13.70
2023-03-30T09:25:54.525Z,13.84
2023-03-30T09:26:55.857Z,14.07
2023-03-30T09:27:55.826Z,14.28
2023-03-30T09:28:55.811Z,14.27
2023-03-30T09:29:55.816Z,14.20
2023-03-30T09:30:55.787Z,14.13
2023-03-30T09:31:55.920Z,14.08
2023-03-30T09:32:55.776Z,13.97
2023-03-30T09:33:55.113Z,13.90
2023-03-30T09:34:58.448Z,13.83
2023-03-30T09:35:55.748Z,13.84
2023-03-30T09:36:55.003Z,13.82
2023-03-30T09:37:56.281Z,13.86
2023-03-30T09:38:55.690Z,13.89
2023-03-30T09:39:55.735Z,14.01
2023-03-30T09:40:55.714Z,14.11
2023-03-30T09:41:54.916Z,14.20
2023-03-30T09:42:54.906Z,14.26
2023-03-30T09:43:55.620Z,14.28
2023-03-30T09:44:54.854Z,14.31
2023-03-30T09:45:54.886Z,14.43
2023-03-30T09:46:54.882Z,14.48
2023-03-30T09:47:54.882Z,14.57
2023-03-30T09:48:54.818Z,14.76
2023-03-30T09:49:54.777Z,15.33
2023-03-30T09:50:54.811Z,16.03
2023-03-30T09:51:54.779Z,16.38
2023-03-30T09:52:54.228Z,16.42
2023-03-30T09:53:54.754Z,16.57
2023-03-30T09:54:55.023Z,16.56
2023-03-30T09:55:54.716Z,16.48
2023-03-30T09:56:54.788Z,16.23
2023-03-30T09:57:54.685Z,15.93
2023-03-30T09:58:55.365Z,15.69
2023-03-30T09:59:54.669Z,15.75
2023-03-30T10:00:54.646Z,16.51
2023-03-30T10:01:54.712Z,16.71
2023-03-30T10:02:54.697Z,16.83
2023-03-30T10:03:54.791Z,17.09
2023-03-30T10:04:54.629Z,17.84
2023-03-30T10:05:54.594Z,18.55
2023-03-30T10:06:54.617Z,18.48
2023-03-30T10:07:54.559Z,18.20
2023-03-30T10:08:54.550Z,18.10
2023-03-30T10:09:54.545Z,17.68
2023-03-30T10:10:54.509Z,17.35
2023-03-30T10:11:54.465Z,17.54
2023-03-30T10:12:55.160Z,18.26
2023-03-30T10:13:54.215Z,18.59
2023-03-30T10:14:54.236Z,18.61
2023-03-30T10:15:54.264Z,18.23
2023-03-30T10:16:54.255Z,17.99
2023-03-30T10:17:53.951Z,17.58
2023-03-30T10:18:54.401Z,17.56
2023-03-30T10:20:03.565Z,17.37
2023-03-30T10:20:55.372Z,17.28
2023-03-30T10:21:54.324Z,17.73
2023-03-30T10:22:55.084Z,17.48
2023-03-30T10:23:54.240Z,17.21
2023-03-30T10:24:54.287Z,16.87
2023-03-30T10:25:54.312Z,16.65
2023-03-30T10:26:54.408Z,16.45
2023-03-30T10:27:54.254Z,16.44
2023-03-30T10:28:54.947Z,16.90
2023-03-30T10:29:53.556Z,17.34
2023-03-30T10:30:54.289Z,17.34
2023-03-30T10:31:53.625Z,17.39
2023-03-30T10:32:53.585Z,17.34
2023-03-30T10:33:54.196Z,17.14
2023-03-30T10:34:54.200Z,16.95
2023-03-30T10:35:54.166Z,17.44
2023-03-30T10:36:55.142Z,18.31
2023-03-30T10:37:54.130Z,19.16
2023-03-30T10:38:54.120Z,19.28
2023-03-30T10:39:54.428Z,19.28
2023-03-30T10:40:54.111Z,19.28
2023-03-30T10:41:54.093Z,19.46
2023-03-30T10:42:54.042Z,19.38
2023-03-30T10:43:54.075Z,19.87
2023-03-30T10:44:54.050Z,20.31
2023-03-30T10:45:54.022Z,20.06
2023-03-30T10:46:53.360Z,20.19
2023-03-30T10:47:54.045Z,20.48
2023-03-30T10:48:53.970Z,20.59
2023-03-30T10:49:53.236Z,20.61
2023-03-30T10:50:53.974Z,20.56
2023-03-30T10:51:53.942Z,20.54
2023-03-30T10:52:59.005Z,20.95
2023-03-30T10:53:55.436Z,21.16
2023-03-30T10:54:53.906Z,21.07
2023-03-30T10:55:53.953Z,21.43
2023-03-30T10:56:53.904Z,21.62
2023-03-30T10:57:53.867Z,20.92
2023-03-30T10:58:53.832Z,19.85
2023-03-30T10:59:53.831Z,19.05
2023-03-30T11:00:53.849Z,18.63
2023-03-30T11:01:53.822Z,18.26
2023-03-30T11:02:53.894Z,17.95
2023-03-30T11:03:53.889Z,17.70
2023-03-30T11:04:53.823Z,17.94
2023-03-30T11:05:53.287Z,18.29
2023-03-30T11:06:53.755Z,19.15
2023-03-30T11:07:53.736Z,19.13
2023-03-30T11:08:53.715Z,19.34
2023-03-30T11:09:54.495Z,19.80
2023-03-30T11:10:53.690Z,19.53
2023-03-30T11:11:54.409Z,19.59
2023-03-30T11:12:53.650Z,19.63
2023-03-30T11:13:53.636Z,20.12
2023-03-30T11:14:53.637Z,19.89
2023-03-30T11:15:54.313Z,19.75
2023-03-30T11:16:54.039Z,20.09
2023-03-30T11:17:53.668Z,19.49
2023-03-30T11:18:53.619Z,19.65
2023-03-30T11:19:52.961Z,19.43
2023-03-30T11:20:53.549Z,19.22
2023-03-30T11:21:52.997Z,19.50
2023-03-30T11:22:53.524Z,20.24
2023-03-30T11:23:54.187Z,20.25
2023-03-30T11:24:53.500Z,19.74
2023-03-30T11:25:54.145Z,19.49
2023-03-30T11:26:53.470Z,19.47
2023-03-30T11:27:55.019Z,19.05
2023-03-30T11:28:53.438Z,18.63
2023-03-30T11:29:53.226Z,18.23
2023-03-30T11:30:54.129Z,18.09
2023-03-30T11:31:53.510Z,17.79
2023-03-30T11:32:53.479Z,17.45
2023-03-30T11:33:55.009Z,17.08
2023-03-30T11:34:53.385Z,16.87
2023-03-30T11:35:53.324Z,16.74
2023-03-30T11:36:53.328Z,16.75
2023-03-30T11:37:53.296Z,16.78
2023-03-30T11:38:54.061Z,16.88
2023-03-30T11:39:53.321Z,17.69
2023-03-30T11:40:53.999Z,18.60
2023-03-30T11:41:53.941Z,18.48
2023-03-30T11:42:53.966Z,17.96
2023-03-30T11:43:53.543Z,17.42
2023-03-30T11:44:53.966Z,16.97
2023-03-30T11:45:52.565Z,16.65
2023-03-30T11:46:54.191Z,16.37
2023-03-30T11:47:54.582Z,16.18
2023-03-30T11:48:53.902Z,16.13
2023-03-30T11:49:53.893Z,15.99
2023-03-30T11:50:53.864Z,16.68
2023-03-30T11:51:52.748Z,17.54
2023-03-30T11:52:53.902Z,18.46
2023-03-30T11:53:53.824Z,18.93
2023-03-30T11:55:02.217Z,19.51
2023-03-30T11:55:54.077Z,20.29
2023-03-30T11:56:53.348Z,20.75
2023-03-30T11:57:53.059Z,21.05
2023-03-30T11:58:53.003Z,21.23
2023-03-30T11:59:53.020Z,20.98
2023-03-30T12:00:53.031Z,21.16
2023-03-30T12:01:52.489Z,20.91
2023-03-30T12:02:53.063Z,20.39
2023-03-30T12:03:53.343Z,20.29
2023-03-30T12:04:53.020Z,20.52
2023-03-30T12:05:52.932Z,20.26
2023-03-30T12:06:52.927Z,20.14
2023-03-30T12:07:52.929Z,20.54
2023-03-30T12:08:52.908Z,20.49
2023-03-30T12:09:53.657Z,20.63
2023-03-30T12:10:52.864Z,20.62
2023-03-30T12:11:52.870Z,20.55
2023-03-30T12:12:52.848Z,19.77
2023-03-30T12:13:52.828Z,18.99
2023-03-30T12:14:52.779Z,18.73
2023-03-30T12:15:52.870Z,18.81
2023-03-30T12:16:52.899Z,18.69
2023-03-30T12:17:52.407Z,18.48
2023-03-30T12:18:52.757Z,18.41
2023-03-30T12:19:56.469Z,18.31
2023-03-30T12:20:52.755Z,18.22
2023-03-30T12:21:52.723Z,18.46
2023-03-30T12:22:52.708Z,18.68
2023-03-30T12:23:52.336Z,19.23
2023-03-30T12:24:52.641Z,19.89
2023-03-30T12:25:52.710Z,20.54
2023-03-30T12:27:04.653Z,21.04
2023-03-30T12:27:53.622Z,21.39
2023-03-30T12:29:20.889Z,21.72
2023-03-30T12:30:52.600Z,22.26
2023-03-30T12:31:52.456Z,22.18
2023-03-30T12:32:52.426Z,21.99
2023-03-30T12:33:52.355Z,21.87
2023-03-30T12:34:52.501Z,21.78
2023-03-30T12:35:53.349Z,21.84
2023-03-30T12:36:52.511Z,21.40
2023-03-30T12:37:52.498Z,20.67
2023-03-30T12:38:52.519Z,20.46
2023-03-30T12:39:51.901Z,20.06
2023-03-30T12:40:51.884Z,19.71
2023-03-30T12:41:52.642Z,19.99
2023-03-30T12:42:52.429Z,19.93
2023-03-30T12:43:52.416Z,20.28
2023-03-30T12:44:51.671Z,19.75
2023-03-30T12:45:52.462Z,18.96
2023-03-30T12:46:52.382Z,18.42
2023-03-30T12:47:51.676Z,18.65
2023-03-30T12:48:52.571Z,19.40
2023-03-30T12:49:51.946Z,19.66
2023-03-30T12:50:52.995Z,19.76
2023-03-30T12:51:52.322Z,19.48
2023-03-30T12:52:52.329Z,19.02